createdAt,value
2017-12-03T00:01:26.187Z,38.53
2017-12-03T00:04:00.419Z,38.23
2017-12-03T00:06:34.845Z,36.80
2017-12-03T00:09:09.343Z,36.70
2017-12-03T00:11:44.001Z,34.75
2017-12-03T00:14:18.492Z,31.90
2017-12-03T00:16:52.935Z,32.70
2017-12-03T00:19:27.517Z,35.70
2017-12-03T00:22:01.910Z,38.90
2017-12-03T00:24:36.562Z,35.83
2017-12-03T00:27:10.985Z,42.73
2017-12-03T00:29:45.470Z,37.90
2017-12-03T00:32:19.853Z,34.43
2017-12-03T00:34:54.518Z,32.97
2017-12-03T00:37:29.091Z,35.17
2017-12-03T00:40:13.397Z,36.10
2017-12-03T00:42:47.895Z,34.93
2017-12-03T00:45:22.553Z,37.88
2017-12-03T00:47:57.234Z,33.30
2017-12-03T00:50:31.702Z,31.50
2017-12-03T00:53:06.205Z,33.23
2017-12-03T00:55:40.645Z,33.73
2017-12-03T00:58:15.198Z,32.80
2017-12-03T01:00:49.562Z,35.23
2017-12-03T01:03:24.138Z,32.07
2017-12-03T01:05:58.514Z,36.53
2017-12-03T01:08:33.337Z,36.53
2017-12-03T01:11:07.858Z,34.57
2017-12-03T01:13:42.330Z,35.20
2017-12-03T01:16:17.008Z,37.13
2017-12-03T01:18:51.590Z,34.30
2017-12-03T01:21:26.274Z,32.22
2017-12-03T01:24:01.078Z,31.33
2017-12-03T01:26:35.641Z,36.83
2017-12-03T01:29:10.435Z,36.67
2017-12-03T01:31:45.212Z,35.53
2017-12-03T01:34:19.794Z,32.47
2017-12-03T01:36:54.286Z,35.13
2017-12-03T01:39:28.770Z,38.50
2017-12-03T01:42:03.254Z,40.03
2017-12-03T01:44:37.822Z,39.83
2017-12-03T01:47:12.615Z,40.67
2017-12-03T01:49:47.110Z,35.27
2017-12-03T01:52:21.566Z,45.50
2017-12-03T01:54:56.248Z,36.20
2017-12-03T01:57:30.618Z,41.17
2017-12-03T02:00:06.085Z,42.67
2017-12-03T02:02:40.686Z,36.90
2017-12-03T02:05:14.807Z,39.67
2017-12-03T02:07:49.105Z,39.57
2017-12-03T02:10:23.790Z,37.80
2017-12-03T02:12:58.294Z,36.33
2017-12-03T02:15:32.682Z,43.23
2017-12-03T02:18:07.085Z,36.30
2017-12-03T02:20:41.126Z,38.13
2017-12-03T02:23:15.650Z,41.90
2017-12-03T02:25:50.073Z,41.03
2017-12-03T02:28:24.558Z,39.37
2017-12-03T02:30:59.242Z,41.33
2017-12-03T02:33:33.747Z,33.33
2017-12-03T02:36:08.135Z,40.00
2017-12-03T02:38:42.627Z,41.97
2017-12-03T02:41:17.078Z,37.30
2017-12-03T02:43:51.624Z,38.20
2017-12-03T02:46:26.257Z,33.63
2017-12-03T02:49:01.028Z,36.97
2017-12-03T02:51:35.154Z,35.70
2017-12-03T02:54:09.714Z,39.13
2017-12-03T02:56:44.078Z,32.90
2017-12-03T02:59:18.938Z,28.33
2017-12-03T03:01:53.422Z,43.47
2017-12-03T03:04:28.175Z,34.70
2017-12-03T03:07:02.851Z,35.30
2017-12-03T03:09:37.342Z,34.97
2017-12-03T03:12:11.792Z,37.83
2017-12-03T03:14:46.278Z,35.07
2017-12-03T03:17:20.645Z,43.20
2017-12-03T03:19:55.209Z,36.07
2017-12-03T03:22:29.582Z,35.67
2017-12-03T03:25:13.501Z,29.57
2017-12-03T03:27:48.090Z,39.23
2017-12-03T03:30:22.540Z,41.33
2017-12-03T03:32:56.906Z,26.97
2017-12-03T03:35:31.264Z,38.47
2017-12-03T03:38:05.599Z,37.83
2017-12-03T03:40:40.173Z,37.37
2017-12-03T03:43:15.010Z,34.72
2017-12-03T03:45:49.437Z,29.70
2017-12-03T03:48:23.943Z,32.67
2017-12-03T03:50:58.335Z,31.87
2017-12-03T03:53:32.859Z,36.57
2017-12-03T03:56:06.970Z,30.03
2017-12-03T03:58:41.414Z,42.27
2017-12-03T04:01:15.537Z,36.47
2017-12-03T04:03:49.702Z,28.53
2017-12-03T04:06:24.086Z,33.00
2017-12-03T04:08:58.627Z,29.80
2017-12-03T04:11:32.658Z,33.00
2017-12-03T04:14:08.244Z,25.53
2017-12-03T04:16:42.586Z,31.20
2017-12-03T04:19:17.193Z,32.53
2017-12-03T04:21:51.513Z,25.03
2017-12-03T04:24:26.013Z,32.33
2017-12-03T04:27:00.287Z,33.40
2017-12-03T04:29:34.818Z,32.37
2017-12-03T04:32:09.065Z,33.20
2017-12-03T04:34:43.374Z,36.43
2017-12-03T04:37:17.220Z,29.60
2017-12-03T04:39:51.261Z,39.40
2017-12-03T04:42:25.387Z,31.40
2017-12-03T04:44:59.378Z,38.20
2017-12-03T04:47:33.467Z,33.10
2017-12-03T04:50:11.516Z,35.37
2017-12-03T04:52:45.683Z,34.27
2017-12-03T04:55:20.062Z,30.53
2017-12-03T04:57:54.580Z,34.97
2017-12-03T05:00:28.994Z,39.70
2017-12-03T05:03:03.503Z,31.47
2017-12-03T05:05:37.493Z,33.43
2017-12-03T05:08:11.567Z,32.17
2017-12-03T05:10:45.477Z,29.67
2017-12-03T05:13:19.725Z,33.57
2017-12-03T05:15:53.766Z,41.30
2017-12-03T05:18:27.870Z,32.13
2017-12-03T05:21:01.894Z,28.60
2017-12-03T05:23:36.147Z,33.37
2017-12-03T05:26:10.187Z,27.07
2017-12-03T05:28:44.686Z,34.10
2017-12-03T05:31:18.723Z,39.93
2017-12-03T05:33:52.838Z,36.40
2017-12-03T05:36:26.885Z,33.50
2017-12-03T05:39:01.446Z,30.57
2017-12-03T05:41:35.930Z,34.43
2017-12-03T05:44:10.105Z,31.07
2017-12-03T05:46:44.132Z,27.37
2017-12-03T05:49:18.637Z,31.30
2017-12-03T05:51:52.668Z,33.87
2017-12-03T05:54:26.852Z,26.90
2017-12-03T05:57:01.467Z,33.83
2017-12-03T05:59:35.654Z,29.77
2017-12-03T06:02:09.698Z,36.80
2017-12-03T06:04:43.879Z,34.20
2017-12-03T06:07:17.930Z,31.47
2017-12-03T06:09:52.075Z,31.10
2017-12-03T06:12:26.166Z,38.93
2017-12-03T06:15:00.734Z,39.43
2017-12-03T06:17:35.212Z,31.00
2017-12-03T06:20:16.385Z,33.20
2017-12-03T06:22:50.458Z,25.03
2017-12-03T06:25:24.558Z,32.33
2017-12-03T06:27:58.953Z,28.70
2017-12-03T06:30:33.007Z,32.50
2017-12-03T06:33:07.117Z,31.33
2017-12-03T06:35:41.514Z,34.10
2017-12-03T06:38:16.044Z,30.67
2017-12-03T06:40:50.070Z,31.43
2017-12-03T06:43:24.227Z,34.27
2017-12-03T06:45:58.338Z,35.07
2017-12-03T06:48:32.898Z,37.27
2017-12-03T06:51:07.058Z,34.53
2017-12-03T06:53:41.639Z,34.53
2017-12-03T06:56:16.093Z,35.30
2017-12-03T06:58:50.374Z,26.87
2017-12-03T07:01:24.407Z,27.90
2017-12-03T07:03:58.639Z,27.30
2017-12-03T07:06:32.749Z,23.73
2017-12-03T07:09:07.274Z,26.43
2017-12-03T07:11:41.322Z,31.17
2017-12-03T07:14:15.450Z,26.77
2017-12-03T07:16:49.849Z,25.37
2017-12-03T07:19:24.334Z,28.90
2017-12-03T07:21:58.227Z,34.60
2017-12-03T07:24:32.406Z,32.30
2017-12-03T07:27:06.362Z,28.17
2017-12-03T07:29:40.858Z,26.53
2017-12-03T07:32:15.001Z,25.67
2017-12-03T07:34:49.397Z,27.17
2017-12-03T07:37:23.842Z,25.40
2017-12-03T07:39:59.079Z,27.43
2017-12-03T07:42:33.701Z,22.67
2017-12-03T07:45:14.574Z,22.00
2017-12-03T07:47:48.701Z,22.70
2017-12-03T07:50:22.738Z,24.47
2017-12-03T07:52:57.268Z,21.10
2017-12-03T07:55:31.298Z,20.77
2017-12-03T07:58:05.613Z,23.80
2017-12-03T08:00:40.142Z,25.00
2017-12-03T08:03:14.533Z,29.03
2017-12-03T08:05:48.906Z,21.23
2017-12-03T08:08:23.122Z,23.80
2017-12-03T08:10:58.814Z,26.13
2017-12-03T08:13:32.866Z,27.67
2017-12-03T08:16:06.973Z,31.77
2017-12-03T08:18:41.153Z,26.03
2017-12-03T08:21:15.347Z,25.87
2017-12-03T08:23:49.621Z,24.87
2017-12-03T08:26:23.563Z,20.53
2017-12-03T08:28:57.475Z,25.50
2017-12-03T08:31:31.978Z,26.27
2017-12-03T08:34:06.598Z,27.33
2017-12-03T08:36:40.719Z,24.87
2017-12-03T08:39:15.158Z,26.60
2017-12-03T08:41:49.734Z,23.77
2017-12-03T08:44:23.894Z,24.63
2017-12-03T08:46:57.928Z,21.23
2017-12-03T08:49:32.301Z,23.60
2017-12-03T08:52:06.534Z,27.83
2017-12-03T08:54:40.800Z,25.80
2017-12-03T08:57:15.192Z,25.43
2017-12-03T08:59:49.367Z,23.10
2017-12-03T09:02:23.454Z,22.40
2017-12-03T09:04:57.633Z,28.00
2017-12-03T09:07:31.682Z,23.13
2017-12-03T09:10:10.890Z,25.77
2017-12-03T09:12:45.126Z,22.77
2017-12-03T09:15:19.191Z,26.40
2017-12-03T09:17:53.402Z,26.17
2017-12-03T09:20:27.831Z,25.50
2017-12-03T09:23:01.983Z,30.70
2017-12-03T09:25:36.092Z,23.63
2017-12-03T09:28:10.125Z,23.20
2017-12-03T09:30:44.390Z,20.30
2017-12-03T09:33:18.642Z,24.13
2017-12-03T09:35:52.698Z,24.17
2017-12-03T09:38:26.863Z,21.20
2017-12-03T09:41:00.730Z,18.23
2017-12-03T09:43:34.775Z,20.37
2017-12-03T09:46:08.818Z,23.83
2017-12-03T09:48:42.970Z,24.00
2017-12-03T09:51:17.120Z,21.10
2017-12-03T09:53:51.175Z,13.87
2017-12-03T09:56:25.086Z,14.07
2017-12-03T09:58:59.254Z,17.43
2017-12-03T10:01:33.845Z,16.83
2017-12-03T10:04:08.086Z,17.60
2017-12-03T10:06:42.238Z,13.17
2017-12-03T10:09:16.286Z,15.90
2017-12-03T10:11:50.639Z,17.30
2017-12-03T10:14:24.916Z,14.60
2017-12-03T10:16:59.321Z,13.03
2017-12-03T10:19:33.504Z,11.43
2017-12-03T10:22:07.512Z,14.57
2017-12-03T10:24:41.857Z,9.77
2017-12-03T10:27:16.162Z,16.63
2017-12-03T10:29:50.346Z,13.83
2017-12-03T10:32:24.483Z,22.13
2017-12-03T10:34:58.646Z,10.77
2017-12-03T10:37:32.836Z,12.87
2017-12-03T10:40:15.268Z,10.87
2017-12-03T10:42:49.742Z,16.20
2017-12-03T10:45:24.098Z,13.47
2017-12-03T10:47:58.633Z,10.37
2017-12-03T10:50:33.232Z,7.50
2017-12-03T10:53:07.797Z,13.07
2017-12-03T10:55:42.220Z,10.43
2017-12-03T10:58:16.730Z,11.27
2017-12-03T11:00:51.084Z,11.63
2017-12-03T11:03:25.535Z,7.93
2017-12-03T11:06:00.279Z,12.47
2017-12-03T11:08:34.456Z,10.13
2017-12-03T11:11:08.938Z,11.20
2017-12-03T11:13:43.442Z,8.47
2017-12-03T11:16:17.809Z,9.33
2017-12-03T11:18:52.281Z,10.17
2017-12-03T11:21:26.765Z,11.20
2017-12-03T11:24:01.221Z,14.10
2017-12-03T11:26:35.611Z,13.60
2017-12-03T11:29:09.958Z,16.77
2017-12-03T11:31:44.489Z,13.57
2017-12-03T11:34:18.892Z,13.77
2017-12-03T11:36:53.151Z,13.90
2017-12-03T11:39:27.606Z,13.67
2017-12-03T11:42:01.995Z,15.30
2017-12-03T11:44:36.482Z,13.57
2017-12-03T11:47:10.857Z,13.13
2017-12-03T11:49:45.362Z,12.30
2017-12-03T11:52:19.794Z,17.83
2017-12-03T11:54:54.278Z,21.47
2017-12-03T11:57:28.795Z,8.60
2017-12-03T12:02:43.747Z,14.87
2017-12-03T12:05:18.190Z,14.97
2017-12-03T12:07:52.668Z,13.67
2017-12-03T12:10:27.032Z,11.00
2017-12-03T12:13:01.534Z,13.47
2017-12-03T12:15:35.831Z,15.00
2017-12-03T12:18:10.324Z,15.57
2017-12-03T12:20:44.706Z,15.23
2017-12-03T12:23:19.185Z,14.20
2017-12-03T12:25:53.358Z,17.80
2017-12-03T12:28:27.968Z,18.00
2017-12-03T12:31:02.358Z,12.70
2017-12-03T12:33:36.837Z,14.67
2017-12-03T12:36:11.225Z,15.97
2017-12-03T12:38:45.773Z,16.67
2017-12-03T12:41:20.141Z,18.23
2017-12-03T12:43:54.530Z,17.70
2017-12-03T12:46:28.907Z,17.17
2017-12-03T12:49:03.431Z,12.07
2017-12-03T12:51:37.455Z,13.60
2017-12-03T12:54:11.914Z,18.30
2017-12-03T12:56:46.013Z,16.77
2017-12-03T12:59:20.489Z,20.03
2017-12-03T13:01:55.079Z,25.57
2017-12-03T13:04:29.650Z,24.90
2017-12-03T13:07:04.097Z,28.77
2017-12-03T13:09:38.604Z,30.13
2017-12-03T13:12:13.084Z,28.27
2017-12-03T13:14:47.574Z,25.70
2017-12-03T13:17:22.018Z,25.80
2017-12-03T13:19:56.518Z,30.83
2017-12-03T13:22:30.878Z,28.97
2017-12-03T13:25:07.853Z,26.03
2017-12-03T13:27:42.280Z,25.90
2017-12-03T13:30:16.740Z,28.53
2017-12-03T13:32:51.223Z,23.00
2017-12-03T13:35:25.996Z,26.40
2017-12-03T13:38:00.226Z,21.20
2017-12-03T13:40:34.797Z,27.40
2017-12-03T13:43:09.314Z,23.13
2017-12-03T13:45:43.702Z,21.70
2017-12-03T13:48:18.289Z,22.00
2017-12-03T13:50:52.674Z,19.83
2017-12-03T13:53:27.018Z,24.93
2017-12-03T13:56:01.374Z,27.40
2017-12-03T13:58:35.458Z,22.53
2017-12-03T14:01:09.905Z,20.80
2017-12-03T14:03:44.247Z,23.30
2017-12-03T14:06:18.714Z,21.60
2017-12-03T14:08:53.106Z,21.73
2017-12-03T14:11:27.685Z,22.20
2017-12-03T14:14:02.871Z,18.53
2017-12-03T14:16:37.410Z,23.23
2017-12-03T14:19:11.755Z,23.00
2017-12-03T14:21:46.038Z,23.50
2017-12-03T14:24:20.438Z,24.00
2017-12-03T14:26:54.832Z,24.50
2017-12-03T14:29:29.150Z,21.43
2017-12-03T14:32:03.280Z,20.43
2017-12-03T14:34:37.838Z,25.37
2017-12-03T14:37:12.291Z,22.10
2017-12-03T14:39:46.778Z,22.57
2017-12-03T14:42:20.954Z,18.83
2017-12-03T14:44:55.286Z,18.97
2017-12-03T14:47:29.474Z,23.90
2017-12-03T14:50:07.586Z,22.67
2017-12-03T14:52:42.072Z,19.63
2017-12-03T14:55:16.505Z,22.47
2017-12-03T14:57:50.898Z,23.10
2017-12-03T15:00:25.658Z,22.47
2017-12-03T15:03:00.122Z,18.87
2017-12-03T15:05:34.262Z,21.07
2017-12-03T15:08:08.790Z,23.93
2017-12-03T15:10:43.174Z,21.63
2017-12-03T15:13:19.007Z,19.13
2017-12-03T15:15:53.035Z,23.53
2017-12-03T15:18:27.202Z,19.13
2017-12-03T15:21:01.382Z,26.13
2017-12-03T15:23:35.562Z,20.63
2017-12-03T15:26:09.706Z,22.83
2017-12-03T15:28:43.682Z,15.93
2017-12-03T15:31:17.706Z,13.97
2017-12-03T15:33:51.981Z,21.53
2017-12-03T15:36:25.995Z,25.43
2017-12-03T15:39:00.048Z,17.90
2017-12-03T15:41:34.173Z,21.90
2017-12-03T15:44:08.534Z,17.07
2017-12-03T15:46:42.699Z,15.40
2017-12-03T15:49:16.548Z,15.83
2017-12-03T15:51:50.520Z,18.07
2017-12-03T15:54:24.716Z,15.97
2017-12-03T15:56:58.894Z,18.30
2017-12-03T15:59:33.299Z,20.80
2017-12-03T16:02:07.229Z,19.83
2017-12-03T16:04:41.334Z,15.07
2017-12-03T16:07:15.350Z,17.03
2017-12-03T16:09:49.922Z,19.07
2017-12-03T16:12:23.982Z,18.67
2017-12-03T16:14:58.114Z,18.90
2017-12-03T16:17:32.168Z,18.83
2017-12-03T16:20:07.380Z,15.90
2017-12-03T16:22:41.738Z,19.30
2017-12-03T16:25:16.188Z,13.20
2017-12-03T16:27:50.341Z,18.37
2017-12-03T16:30:24.306Z,19.20
2017-12-03T16:32:59.075Z,17.60
2017-12-03T16:35:33.359Z,15.37
2017-12-03T16:38:07.527Z,14.23
2017-12-03T16:40:41.916Z,18.30
2017-12-03T16:43:16.086Z,19.17
2017-12-03T16:45:50.123Z,19.37
2017-12-03T16:48:24.313Z,15.63
2017-12-03T16:50:58.734Z,14.00
2017-12-03T16:53:33.333Z,15.77
2017-12-03T16:56:07.714Z,18.30
2017-12-03T16:58:42.154Z,13.27
2017-12-03T17:01:16.352Z,12.50
2017-12-03T17:03:50.846Z,17.77
2017-12-03T17:06:25.277Z,17.17
2017-12-03T17:08:59.731Z,16.00
2017-12-03T17:11:34.168Z,18.73
2017-12-03T17:14:08.874Z,19.87
2017-12-03T17:16:43.347Z,22.13
2017-12-03T17:19:17.855Z,22.87
2017-12-03T17:21:51.971Z,20.57
2017-12-03T17:24:26.546Z,20.87
2017-12-03T17:27:00.427Z,18.50
2017-12-03T17:29:34.643Z,29.27
2017-12-03T17:32:08.710Z,18.60
2017-12-03T17:34:43.166Z,25.20
2017-12-03T17:37:17.332Z,23.47
2017-12-03T17:39:51.846Z,20.00
2017-12-03T17:42:26.354Z,18.90
2017-12-03T17:45:00.930Z,18.30
2017-12-03T17:47:35.353Z,23.83
2017-12-03T17:50:11.670Z,18.50
2017-12-03T17:52:46.098Z,20.53
2017-12-03T17:55:20.578Z,17.50
2017-12-03T17:57:55.058Z,17.53
2017-12-03T18:00:29.222Z,20.17
2017-12-03T18:03:03.811Z,17.10
2017-12-03T18:05:38.255Z,18.40
2017-12-03T18:08:12.844Z,17.90
2017-12-03T18:10:47.274Z,16.50
2017-12-03T18:13:21.783Z,14.83
2017-12-03T18:15:56.167Z,16.07
2017-12-03T18:18:30.654Z,9.00
2017-12-03T18:21:05.024Z,12.80
2017-12-03T18:23:39.508Z,14.43
2017-12-03T18:26:13.559Z,13.50
2017-12-03T18:28:48.145Z,14.60
2017-12-03T18:31:22.602Z,14.90
2017-12-03T18:33:57.115Z,16.57
2017-12-03T18:36:31.570Z,14.27
2017-12-03T18:39:06.194Z,12.20
2017-12-03T18:41:40.398Z,18.00
2017-12-03T18:44:14.701Z,10.80
2017-12-03T18:46:48.665Z,17.10
2017-12-03T18:49:22.974Z,14.90
2017-12-03T18:51:57.150Z,16.10
2017-12-03T18:54:31.699Z,10.27
2017-12-03T18:57:06.021Z,14.67
2017-12-03T18:59:40.058Z,11.93
2017-12-03T19:02:14.329Z,12.70
2017-12-03T19:04:48.978Z,16.27
2017-12-03T19:07:23.402Z,12.57
2017-12-03T19:09:57.864Z,13.83
2017-12-03T19:12:32.242Z,15.47
2017-12-03T19:15:07.934Z,11.50
2017-12-03T19:17:42.421Z,9.37
2017-12-03T19:20:16.468Z,11.80
2017-12-03T19:22:50.621Z,10.73
2017-12-03T19:25:25.010Z,13.43
2017-12-03T19:28:00.231Z,13.20
2017-12-03T19:30:34.718Z,13.03
2017-12-03T19:33:09.277Z,15.50
2017-12-03T19:35:43.722Z,14.40
2017-12-03T19:38:18.221Z,15.60
2017-12-03T19:40:52.578Z,16.40
2017-12-03T19:43:26.818Z,13.57
2017-12-03T19:46:01.171Z,13.13
2017-12-03T19:48:35.669Z,11.47
2017-12-03T19:51:09.724Z,13.67
2017-12-03T19:53:44.195Z,12.97
2017-12-03T19:56:18.644Z,14.57
2017-12-03T19:58:53.218Z,10.80
2017-12-03T20:01:27.826Z,12.40
2017-12-03T20:04:02.346Z,13.70
2017-12-03T20:06:36.362Z,18.33
2017-12-03T20:09:10.889Z,14.27
2017-12-03T20:11:45.302Z,15.93
2017-12-03T20:14:19.826Z,13.83
2017-12-03T20:16:54.190Z,15.43
2017-12-03T20:19:28.770Z,16.43
2017-12-03T20:22:03.134Z,15.97
2017-12-03T20:24:37.618Z,14.93
2017-12-03T20:27:11.979Z,16.10
2017-12-03T20:29:46.360Z,20.03
2017-12-03T20:32:20.533Z,17.73
2017-12-03T20:34:54.666Z,16.40
2017-12-03T20:37:28.935Z,16.57
2017-12-03T20:40:02.967Z,17.43
2017-12-03T20:42:37.154Z,17.53
2017-12-03T20:45:13.235Z,12.83
2017-12-03T20:47:47.272Z,17.20
2017-12-03T20:50:21.473Z,17.80
2017-12-03T20:52:55.742Z,18.83
2017-12-03T20:55:30.138Z,22.50
2017-12-03T20:58:04.585Z,15.40
2017-12-03T21:00:38.699Z,19.20
2017-12-03T21:03:13.430Z,19.57
2017-12-03T21:05:47.887Z,24.33
2017-12-03T21:08:22.046Z,18.33
2017-12-03T21:10:56.410Z,20.07
2017-12-03T21:13:30.895Z,21.93
2017-12-03T21:16:05.338Z,20.30
2017-12-03T21:18:39.590Z,19.00
2017-12-03T21:21:13.609Z,19.43
2017-12-03T21:23:47.998Z,23.83
2017-12-03T21:26:22.365Z,18.90
2017-12-03T21:28:56.943Z,16.83
2017-12-03T21:31:30.978Z,18.07
2017-12-03T21:34:05.785Z,17.90
2017-12-03T21:36:41.054Z,17.70
2017-12-03T21:39:15.262Z,21.30
2017-12-03T21:41:49.570Z,17.20
2017-12-03T21:44:24.056Z,23.93
2017-12-03T21:46:58.454Z,19.80
2017-12-03T21:49:32.941Z,24.17
2017-12-03T21:52:07.609Z,20.87
2017-12-03T21:54:42.146Z,19.00
2017-12-03T21:57:16.331Z,23.80
2017-12-03T21:59:50.914Z,24.63
2017-12-03T22:02:25.358Z,27.10
2017-12-03T22:04:59.663Z,28.17
2017-12-03T22:07:33.996Z,25.70
2017-12-03T22:10:13.743Z,26.00
2017-12-03T22:12:48.107Z,23.00
2017-12-03T22:15:22.477Z,22.90
2017-12-03T22:17:56.946Z,23.73
2017-12-03T22:20:31.372Z,21.07
2017-12-03T22:23:05.942Z,22.90
2017-12-03T22:25:40.306Z,19.93
2017-12-03T22:28:14.813Z,22.23
2017-12-03T22:30:49.170Z,21.73
2017-12-03T22:33:23.779Z,23.70
2017-12-03T22:35:58.345Z,22.07
2017-12-03T22:38:32.928Z,20.43
2017-12-03T22:41:07.377Z,17.23
2017-12-03T22:43:41.891Z,16.30
2017-12-03T22:46:16.950Z,18.70
2017-12-03T22:48:51.450Z,18.50
2017-12-03T22:51:25.894Z,16.47
2017-12-03T22:54:00.409Z,18.17
2017-12-03T22:56:34.774Z,14.83
2017-12-03T22:59:09.518Z,14.80
2017-12-03T23:01:44.449Z,16.93
2017-12-03T23:04:18.322Z,13.00
2017-12-03T23:06:52.855Z,17.03
2017-12-03T23:09:27.310Z,12.17
2017-12-03T23:12:01.702Z,12.20
2017-12-03T23:14:36.260Z,14.00
2017-12-03T23:17:10.418Z,14.00
2017-12-03T23:19:44.766Z,11.87
2017-12-03T23:22:19.202Z,11.50
2017-12-03T23:24:53.694Z,12.87
2017-12-03T23:27:27.859Z,14.40
2017-12-03T23:30:02.794Z,12.83
2017-12-03T23:32:37.291Z,9.60
2017-12-03T23:35:11.750Z,13.63
2017-12-03T23:37:45.922Z,10.33
2017-12-03T23:40:20.281Z,14.00
2017-12-03T23:42:54.660Z,10.00
2017-12-03T23:45:28.846Z,11.93
2017-12-03T23:48:03.342Z,11.63
2017-12-03T23:50:37.389Z,12.27
2017-12-03T23:53:11.886Z,11.70
2017-12-03T23:55:46.383Z,12.83
2017-12-03T23:58:20.573Z,11.27
